Time;durP1;ratioP1;P1;durP2;ratioP2;P2;SDS_P1;SDS_P2;PMS_P1;PMS_P2;Temp;Humidity;BMP_temperature;BMP_pressure;BME280_temperature;BME280_humidity;BME280_pressure;Samples;Min_cycle;Max_cycle;Signal;HPM_P1;HPM_P2
2023/06/10 00:03:18;;;;;;;;;;;;;;;23.37;43.41;95270.91;10306776;28;1887;-64
2023/06/10 00:08:19;;;;;;;;;;;;;;;23.38;43.32;95274.34;10306528;28;1097;-63
2023/06/10 00:13:19;;;;;;;;;;;;;;;23.38;43.04;95274.34;10309969;28;1545;-64
2023/06/10 00:18:22;;;;;;;;;;;;;;;23.38;43.13;95279.63;10313756;28;1159;-63
2023/06/10 00:23:22;;;;;;;;;;;;;;;23.38;43.26;95271.72;10280237;28;2328;-64
2023/06/10 00:28:22;;;;;;;;;;;;;;;23.38;43.14;95269.84;10313268;28;1476;-63
2023/06/10 00:33:22;;;;;;;;;;;;;;;23.38;42.97;95274.34;10316013;28;1115;-63
2023/06/10 00:38:23;;;;;;;;;;;;;;;23.37;42.93;95272.78;10309529;28;1350;-64
2023/06/10 00:43:23;;;;;;;;;;;;;;;23.39;42.97;95275.91;10285341;28;5291;-64
2023/06/10 00:48:24;;;;;;;;;;;;;;;23.38;43.11;95288.34;10320195;28;1140;-64
2023/06/10 00:53:25;;;;;;;;;;;;;;;23.37;43.00;95273.56;10307385;28;1690;-64
2023/06/10 00:58:25;;;;;;;;;;;;;;;23.37;43.05;95278.84;10297767;28;1512;-62
2023/06/10 01:03:25;;;;;;;;;;;;;;;23.36;42.77;95272.00;10313892;28;1887;-64
2023/06/10 01:08:29;;;;;;;;;;;;;;;23.36;42.85;95272.00;10315608;28;1561;-64
2023/06/10 01:13:29;;;;;;;;;;;;;;;23.38;42.92;95282.28;10308613;28;1552;-63
2023/06/10 01:18:32;;;;;;;;;;;;;;;23.37;43.07;95267.47;10298653;28;2316;-63
2023/06/10 01:23:33;;;;;;;;;;;;;;;23.36;42.93;95272.00;10313575;28;1899;-64
2023/06/10 01:28:38;;;;;;;;;;;;;;;23.37;42.77;95272.78;10314852;28;1596;-64
2023/06/10 01:33:39;;;;;;;;;;;;;;;23.37;43.14;95288.66;10308307;28;1175;-64
2023/06/10 01:38:42;;;;;;;;;;;;;;;23.37;43.02;95286.00;10307707;28;1562;-63
2023/06/10 01:43:43;;;;;;;;;;;;;;;23.36;42.84;95282.59;10308758;28;1976;-64
2023/06/10 01:48:43;;;;;;;;;;;;;;;23.37;42.84;95284.13;10304808;28;1132;-63
2023/06/10 01:53:44;;;;;;;;;;;;;;;23.36;42.93;95287.88;10310118;28;1496;-63
2023/06/10 01:58:44;;;;;;;;;;;;;;;23.37;42.98;95291.28;10317943;28;1457;-63
2023/06/10 02:03:44;;;;;;;;;;;;;;;23.37;42.87;95288.66;10318973;28;1953;-63
2023/06/10 02:08:44;;;;;;;;;;;;;;;23.37;42.98;95292.06;10310811;28;1649;-63
2023/06/10 02:13:45;;;;;;;;;;;;;;;23.38;42.73;95290.22;10305060;28;3229;-64
2023/06/10 02:18:46;;;;;;;;;;;;;;;23.37;42.65;95286.00;10318913;28;2582;-63
2023/06/10 02:23:46;;;;;;;;;;;;;;;23.37;42.95;95280.72;10313836;28;1922;-64
2023/06/10 02:28:48;;;;;;;;;;;;;;;23.37;42.97;95281.50;10322428;28;1653;-64
2023/06/10 02:33:48;;;;;;;;;;;;;;;23.38;42.97;95287.56;10303480;28;1429;-64
2023/06/10 02:38:48;;;;;;;;;;;;;;;23.38;42.64;95285.72;10341746;28;1214;-64
2023/06/10 02:43:48;;;;;;;;;;;;;;;23.39;42.73;95289.13;10322003;28;5369;-63
2023/06/10 02:48:51;;;;;;;;;;;;;;;23.37;42.70;95291.28;10326133;28;1464;-64
2023/06/10 02:53:51;;;;;;;;;;;;;;;23.38;42.64;95292.88;10311561;28;1584;-64
2023/06/10 02:58:52;;;;;;;;;;;;;;;23.38;42.77;95291.00;10314385;28;1370;-63
2023/06/10 03:03:52;;;;;;;;;;;;;;;23.37;42.54;95283.34;10316267;28;1911;-64
2023/06/10 03:08:52;;;;;;;;;;;;;;;23.38;42.80;95291.00;10290030;28;1482;-63
2023/06/10 03:13:56;;;;;;;;;;;;;;;23.37;42.70;95305.31;10299868;28;2306;-64
2023/06/10 03:18:56;;;;;;;;;;;;;;;23.38;42.77;95314.03;10312967;28;1331;-64
2023/06/10 03:23:56;;;;;;;;;;;;;;;23.38;42.71;95321.97;10315860;28;1910;-63
2023/06/10 03:28:56;;;;;;;;;;;;;;;23.37;42.53;95315.88;10312344;28;1572;-62
2023/06/10 03:33:58;;;;;;;;;;;;;;;23.38;42.51;95316.66;10318826;28;1233;-64
2023/06/10 03:38:58;;;;;;;;;;;;;;;23.37;42.56;95320.38;10309920;28;1380;-63
2023/06/10 03:43:58;;;;;;;;;;;;;;;23.37;42.80;95328.31;10291791;28;5205;-64
2023/06/10 03:49:00;;;;;;;;;;;;;;;23.38;42.52;95327.25;10314146;28;1409;-63
2023/06/10 03:54:00;;;;;;;;;;;;;;;23.37;42.70;95336.25;10310298;28;1284;-63
2023/06/10 03:59:00;;;;;;;;;;;;;;;23.37;42.79;95341.53;10314526;28;1417;-64
2023/06/10 04:04:01;;;;;;;;;;;;;;;23.38;42.60;95340.47;10313985;28;1914;-63
2023/06/10 04:09:02;;;;;;;;;;;;;;;23.37;42.59;95336.25;10309382;28;2178;-64
2023/06/10 04:14:02;;;;;;;;;;;;;;;23.38;42.69;95343.13;10312152;28;1364;-63
2023/06/10 04:19:03;;;;;;;;;;;;;;;23.38;42.83;95343.13;10314557;28;1162;-63
2023/06/10 04:24:03;;;;;;;;;;;;;;;23.38;42.90;95345.75;10315259;28;1959;-63
2023/06/10 04:29:03;;;;;;;;;;;;;;;23.37;42.63;95352.13;10310134;28;1632;-63
2023/06/10 04:34:04;;;;;;;;;;;;;;;23.38;42.76;95353.69;10326086;28;1206;-64
2023/06/10 04:39:05;;;;;;;;;;;;;;;23.39;42.87;95357.88;10318662;28;1417;-64
2023/06/10 04:44:05;;;;;;;;;;;;;;;23.39;42.78;95363.97;10316046;28;5089;-64
2023/06/10 04:49:06;;;;;;;;;;;;;;;23.39;42.78;95365.81;10317303;28;1428;-63
2023/06/10 04:54:06;;;;;;;;;;;;;;;23.39;43.00;95369.25;10321917;28;1092;-64
2023/06/10 04:59:06;;;;;;;;;;;;;;;23.38;42.73;95367.72;10320118;28;1418;-63
2023/06/10 05:04:07;;;;;;;;;;;;;;;23.40;42.78;95367.41;10320758;28;2426;-64
2023/06/10 05:09:07;;;;;;;;;;;;;;;23.41;42.98;95363.69;10309905;28;1468;-64
2023/06/10 05:14:07;;;;;;;;;;;;;;;23.40;42.95;95362.91;10314396;28;1424;-63
2023/06/10 05:19:07;;;;;;;;;;;;;;;23.41;42.93;95367.09;10320121;28;1166;-63
2023/06/10 05:24:08;;;;;;;;;;;;;;;23.41;42.97;95367.09;10312815;28;1887;-64
2023/06/10 05:29:11;;;;;;;;;;;;;;;23.42;43.11;95370.53;10306918;28;1639;-64
2023/06/10 05:34:11;;;;;;;;;;;;;;;23.42;43.19;95367.88;10324048;28;1060;-64
2023/06/10 05:39:11;;;;;;;;;;;;;;;23.42;43.00;95368.66;10315012;28;1449;-64
2023/06/10 05:44:11;;;;;;;;;;;;;;;23.42;43.31;95373.19;10313005;28;5707;-64
2023/06/10 05:49:12;;;;;;;;;;;;;;;23.43;43.11;95377.41;10308749;28;1598;-63
2023/06/10 05:54:12;;;;;;;;;;;;;;;23.42;43.23;95375.81;10319509;28;1156;-64
2023/06/10 05:59:12;;;;;;;;;;;;;;;23.43;43.32;95372.88;10315556;28;2352;-64
2023/06/10 06:04:12;;;;;;;;;;;;;;;23.43;43.33;95377.41;10318901;28;1895;-63
2023/06/10 06:09:13;;;;;;;;;;;;;;;23.44;43.25;95378.94;10313706;28;1426;-63
2023/06/10 06:14:13;;;;;;;;;;;;;;;23.44;43.38;95373.66;10311843;28;1366;-64
2023/06/10 06:19:13;;;;;;;;;;;;;;;23.44;43.28;95384.22;10318611;28;1178;-63
2023/06/10 06:24:14;;;;;;;;;;;;;;;23.45;43.40;95388.47;10310828;28;1895;-64
2023/06/10 06:29:14;;;;;;;;;;;;;;;23.45;43.35;95385.81;10312589;28;1358;-64
2023/06/10 06:34:14;;;;;;;;;;;;;;;23.44;43.45;95378.94;10320784;28;1406;-64
2023/06/10 06:39:15;;;;;;;;;;;;;;;23.45;43.29;95386.56;10316414;28;1330;-63
2023/06/10 06:44:15;;;;;;;;;;;;;;;23.44;43.46;95387.66;10306554;28;5355;-64
2023/06/10 06:49:15;;;;;;;;;;;;;;;23.45;43.50;95394.50;10315721;28;1473;-63
2023/06/10 06:54:15;;;;;;;;;;;;;;;23.45;43.28;95391.88;10316456;28;1145;-63
2023/06/10 06:59:18;;;;;;;;;;;;;;;23.46;43.27;95387.38;10313359;28;2411;-64
2023/06/10 07:04:21;;;;;;;;;;;;;;;23.46;43.15;95387.38;10316559;28;1967;-63
2023/06/10 07:09:21;;;;;;;;;;;;;;;23.47;43.40;95394.22;10309728;28;1386;-63
2023/06/10 07:14:22;;;;;;;;;;;;;;;23.47;43.50;95396.09;10315496;28;1402;-63
2023/06/10 07:19:22;;;;;;;;;;;;;;;23.47;43.25;95401.38;10314513;28;1454;-63
2023/06/10 07:24:22;;;;;;;;;;;;;;;23.47;43.17;95399.53;10315651;28;1950;-63
2023/06/10 07:29:22;;;;;;;;;;;;;;;23.47;43.42;95404.81;10310101;28;1422;-63
2023/06/10 07:34:23;;;;;;;;;;;;;;;23.48;43.37;95400.28;10320476;28;1179;-63
2023/06/10 07:39:23;;;;;;;;;;;;;;;23.48;43.61;95405.56;10311940;28;1355;-64
2023/06/10 07:44:23;;;;;;;;;;;;;;;23.48;43.59;95410.88;10308045;28;5552;-63
2023/06/10 07:49:23;;;;;;;;;;;;;;;23.47;43.45;95394.22;10315295;28;1194;-64
2023/06/10 07:54:24;;;;;;;;;;;;;;;23.47;43.56;95393.44;10314167;28;2340;-63
2023/06/10 07:59:26;;;;;;;;;;;;;;;23.48;43.35;95387.84;10314344;28;1390;-64
2023/06/10 08:04:26;;;;;;;;;;;;;;;23.48;43.48;95393.13;10311846;28;1936;-63
2023/06/10 08:09:26;;;;;;;;;;;;;;;23.47;43.47;95399.53;10312537;28;1409;-63
2023/06/10 08:14:27;;;;;;;;;;;;;;;23.48;43.66;95392.34;10303613;28;1409;-64
2023/06/10 08:19:27;;;;;;;;;;;;;;;23.47;43.57;95399.53;10313938;28;1406;-63
2023/06/10 08:24:27;;;;;;;;;;;;;;;23.48;43.47;95403.72;10314639;28;1899;-63
2023/06/10 08:29:27;;;;;;;;;;;;;;;23.49;43.63;95396.56;10309457;28;1377;-63
2023/06/10 08:34:28;;;;;;;;;;;;;;;23.48;43.56;95398.44;10318315;28;1401;-63
2023/06/10 08:39:31;;;;;;;;;;;;;;;23.48;43.54;95393.13;10314013;28;997;-63
2023/06/10 08:44:33;;;;;;;;;;;;;;;23.48;43.49;95401.06;10298790;28;5673;-63
2023/06/10 08:49:33;;;;;;;;;;;;;;;23.48;43.65;95406.34;10313419;28;2443;-63
2023/06/10 08:54:37;;;;;;;;;;;;;;;23.48;43.63;95397.63;10296731;28;1315;-63
2023/06/10 08:59:38;;;;;;;;;;;;;;;23.51;43.44;95397.06;10309950;28;1441;-63
2023/06/10 09:04:38;;;;;;;;;;;;;;;23.49;43.70;95392.06;10311392;28;1981;-63
2023/06/10 09:09:38;;;;;;;;;;;;;;;23.51;43.70;95405.78;10317750;28;1417;-63
2023/06/10 09:14:38;;;;;;;;;;;;;;;23.51;43.69;95394.41;10312280;28;1656;-63
2023/06/10 09:19:39;;;;;;;;;;;;;;;23.51;43.77;95399.69;10317911;28;1386;-63
2023/06/10 09:24:39;;;;;;;;;;;;;;;23.52;43.89;95396.75;10319870;28;1993;-63
2023/06/10 09:30:00;;;;;;;;;;;;;;;23.52;43.89;95394.09;10314013;28;1337;-63
2023/06/10 09:35:00;;;;;;;;;;;;;;;23.52;43.77;95388.00;10322950;28;3133;-63
2023/06/10 09:40:05;;;;;;;;;;;;;;;23.52;43.93;95396.75;10300611;28;5816;-64
2023/06/10 09:45:05;;;;;;;;;;;;;;;23.53;44.01;95393.03;10313582;28;2304;-63
2023/06/10 09:50:06;;;;;;;;;;;;;;;23.53;43.94;95393.03;10315820;28;1434;-63
2023/06/10 09:55:07;;;;;;;;;;;;;;;23.53;44.01;95395.69;10318003;28;1494;-63
2023/06/10 10:00:08;;;;;;;;;;;;;;;23.53;43.82;95390.38;10312691;28;1953;-63
2023/06/10 10:05:08;;;;;;;;;;;;;;;23.54;43.97;95397.22;10316978;28;1403;-63
2023/06/10 10:10:09;;;;;;;;;;;;;;;23.54;44.10;95389.28;10315820;28;1342;-63
2023/06/10 10:15:10;;;;;;;;;;;;;;;23.55;43.88;95396.16;10312009;28;1185;-63
2023/06/10 10:20:11;;;;;;;;;;;;;;;23.55;43.95;95409.38;10308668;28;1883;-63
2023/06/10 10:25:13;;;;;;;;;;;;;;;23.55;43.93;95400.66;10300738;28;1207;-63
2023/06/10 10:30:14;;;;;;;;;;;;;;;23.55;44.01;95390.88;10303877;28;1447;-63
2023/06/10 10:35:18;;;;;;;;;;;;;;;23.55;43.92;95395.38;10322847;28;1231;-63
2023/06/10 10:40:18;;;;;;;;;;;;;;;23.56;44.08;95389.75;10315305;28;5101;-63
2023/06/10 10:45:19;;;;;;;;;;;;;;;23.57;44.10;95390.56;10306374;28;1382;-63
2023/06/10 10:50:20;;;;;;;;;;;;;;;23.57;43.99;95380.75;10303419;28;1267;-63
2023/06/10 10:55:20;;;;;;;;;;;;;;;23.57;44.08;95388.69;10307731;28;1419;-63
2023/06/10 11:00:27;;;;;;;;;;;;;;;23.58;44.18;95384.97;10314126;28;1883;-63
2023/06/10 11:05:31;;;;;;;;;;;;;;;23.59;44.19;95373.31;10312636;28;1168;-63
2023/06/10 11:10:38;;;;;;;;;;;;;;;23.59;44.28;95375.94;10308533;28;1395;-63
2023/06/10 11:15:40;;;;;;;;;;;;;;;23.59;44.27;95381.25;10315457;28;1016;-63
2023/06/10 11:20:44;;;;;;;;;;;;;;;23.60;44.21;95382.00;10311894;28;1887;-63
2023/06/10 11:25:44;;;;;;;;;;;;;;;23.60;44.42;95382.78;10315494;28;1219;-64
2023/06/10 11:30:45;;;;;;;;;;;;;;;23.58;44.33;95379.66;10306034;28;1385;-63
2023/06/10 11:35:45;;;;;;;;;;;;;;;23.60;44.41;95376.72;10315482;28;1536;-63
2023/06/10 11:40:48;;;;;;;;;;;;;;;23.60;44.17;95372.22;10313414;28;5127;-63
2023/06/10 11:45:53;;;;;;;;;;;;;;;23.61;44.35;95365.84;10314995;28;1128;-63
2023/06/10 11:50:53;;;;;;;;;;;;;;;23.61;44.20;95373.00;10304536;28;1452;-63
2023/06/10 11:55:54;;;;;;;;;;;;;;;23.62;44.37;95353.41;10307245;28;1320;-63
2023/06/10 12:00:56;;;;;;;;;;;;;;;23.62;44.27;95354.16;10313871;28;1955;-63
2023/06/10 12:05:56;;;;;;;;;;;;;;;23.62;44.04;95348.88;10315121;28;1120;-63
2023/06/10 12:10:57;;;;;;;;;;;;;;;23.62;44.36;95359.47;10311764;28;1432;-63
2023/06/10 12:16:10;;;;;;;;;;;;;;;23.63;44.16;95344.38;10305063;28;1190;-63
2023/06/10 12:21:20;;;;;;;;;;;;;;;23.63;44.39;95345.16;10311322;28;1910;-63
2023/06/10 12:26:21;;;;;;;;;;;;;;;23.63;44.19;95350.44;10314183;28;1143;-63
2023/06/10 12:31:21;;;;;;;;;;;;;;;23.63;44.15;95337.22;10315053;28;1576;-63
2023/06/10 12:36:22;;;;;;;;;;;;;;;23.64;44.16;95346.69;10276219;28;2580;-63
2023/06/10 12:41:22;;;;;;;;;;;;;;;23.65;44.10;95345.63;10304045;28;5086;-63
2023/06/10 12:46:22;;;;;;;;;;;;;;;23.64;44.19;95336.13;10304075;28;1089;-63
2023/06/10 12:51:22;;;;;;;;;;;;;;;23.64;44.29;95330.81;10310939;28;1445;-61
2023/06/10 12:56:24;;;;;;;;;;;;;;;23.65;44.20;95327.13;10314205;28;1371;-63
2023/06/10 13:01:24;;;;;;;;;;;;;;;23.66;44.24;95331.31;10312827;28;1903;-63
2023/06/10 13:06:25;;;;;;;;;;;;;;;23.67;44.36;95327.59;10320897;28;1132;-63
2023/06/10 13:11:25;;;;;;;;;;;;;;;23.68;44.51;95336.31;10311171;28;1320;-63
2023/06/10 13:16:26;;;;;;;;;;;;;;;23.67;44.36;95330.25;10320515;28;1166;-63
2023/06/10 13:21:26;;;;;;;;;;;;;;;23.69;44.30;95337.88;10319382;28;1981;-63
2023/06/10 13:26:26;;;;;;;;;;;;;;;23.69;44.55;95337.88;10321382;28;1139;-63
2023/06/10 13:31:26;;;;;;;;;;;;;;;23.70;44.39;95334.16;10318820;28;2230;-63
2023/06/10 13:36:27;;;;;;;;;;;;;;;23.70;44.63;95332.25;10301703;28;1318;-63
2023/06/10 13:41:30;;;;;;;;;;;;;;;23.70;44.47;95334.16;10300029;28;5696;-63
2023/06/10 13:46:30;;;;;;;;;;;;;;;23.71;44.52;95328.53;10319502;28;1219;-63
2023/06/10 13:51:31;;;;;;;;;;;;;;;23.71;44.47;95325.09;10314265;28;1403;-63
2023/06/10 13:56:31;;;;;;;;;;;;;;;23.70;44.52;95316.38;10318735;28;1052;-62
2023/06/10 14:01:31;;;;;;;;;;;;;;;23.71;44.63;95315.31;10316511;28;1886;-63
2023/06/10 14:06:33;;;;;;;;;;;;;;;23.71;44.43;95312.66;10318651;28;1139;-63
2023/06/10 14:11:33;;;;;;;;;;;;;;;23.70;44.63;95313.72;10316204;28;1592;-63
2023/06/10 14:16:34;;;;;;;;;;;;;;;23.72;44.62;95321.41;10318332;28;1079;-63
2023/06/10 14:21:34;;;;;;;;;;;;;;;23.73;44.73;95317.66;10317567;28;1977;-63
2023/06/10 14:26:34;;;;;;;;;;;;;;;23.71;44.48;95323.25;10317304;28;2444;-59
2023/06/10 14:31:35;;;;;;;;;;;;;;;23.73;44.77;95322.94;10313789;28;1785;-63
2023/06/10 14:36:35;;;;;;;;;;;;;;;23.73;44.68;95317.66;10309574;28;1362;-63
2023/06/10 14:41:35;;;;;;;;;;;;;;;23.74;44.66;95327.91;10314151;28;5140;-63
2023/06/10 14:46:35;;;;;;;;;;;;;;;23.72;44.77;95319.50;10315571;28;1374;-63
2023/06/10 14:51:36;;;;;;;;;;;;;;;23.73;44.74;95321.09;10317047;28;1140;-63
2023/06/10 14:56:36;;;;;;;;;;;;;;;23.75;44.66;95318.13;10312799;28;1381;-63
2023/06/10 15:01:36;;;;;;;;;;;;;;;23.74;44.45;95324.53;10316706;28;1982;-63
2023/06/10 15:06:36;;;;;;;;;;;;;;;23.73;44.41;95323.72;10307790;28;1446;-63
2023/06/10 15:11:37;;;;;;;;;;;;;;;23.74;44.52;95330.56;10312844;28;1429;-63
2023/06/10 15:16:38;;;;;;;;;;;;;;;23.74;44.55;95319.97;10315452;28;1186;-63
2023/06/10 15:21:38;;;;;;;;;;;;;;;23.74;44.71;95325.28;10311870;28;1906;-63
2023/06/10 15:26:38;;;;;;;;;;;;;;;23.75;44.43;95320.78;10315360;28;1112;-63
2023/06/10 15:31:38;;;;;;;;;;;;;;;23.75;44.52;95321.56;10310192;28;1450;-63
2023/06/10 15:36:39;;;;;;;;;;;;;;;23.75;44.61;95313.63;10312546;28;1377;-64
2023/06/10 15:41:39;;;;;;;;;;;;;;;23.76;44.53;95314.41;10307477;28;1938;-64
2023/06/10 15:46:39;;;;;;;;;;;;;;;23.76;44.78;95314.41;10314867;28;1190;-63
2023/06/10 15:51:40;;;;;;;;;;;;;;;23.76;44.56;95317.81;10307339;28;1448;-64
2023/06/10 15:56:40;;;;;;;;;;;;;;;23.76;44.63;95323.09;10301732;28;1515;-64
2023/06/10 16:01:40;;;;;;;;;;;;;;;23.76;44.71;95317.81;10312768;28;1882;-64
2023/06/10 16:06:41;;;;;;;;;;;;;;;23.76;44.72;95325.75;10313826;28;1222;-64
2023/06/10 16:11:41;;;;;;;;;;;;;;;23.76;44.52;95325.75;10302778;28;1349;-64
2023/06/10 16:16:41;;;;;;;;;;;;;;;23.77;44.84;95323.91;10316086;28;1139;-64
2023/06/10 16:21:41;;;;;;;;;;;;;;;23.76;44.68;95328.41;10317450;28;2238;-64
2023/06/10 16:26:42;;;;;;;;;;;;;;;23.77;44.57;95337.91;10320195;28;1398;-63
2023/06/10 16:31:42;;;;;;;;;;;;;;;23.77;44.90;95340.56;10323088;28;1123;-64
2023/06/10 16:36:42;;;;;;;;;;;;;;;23.77;44.60;95353.78;10314072;28;1372;-64
2023/06/10 16:41:43;;;;;;;;;;;;;;;23.78;44.80;95351.94;10317467;28;5817;-64
2023/06/10 16:46:43;;;;;;;;;;;;;;;23.78;44.67;95355.34;10321520;28;1162;-64
2023/06/10 16:51:43;;;;;;;;;;;;;;;23.78;44.77;95368.56;10308692;28;1429;-64
2023/06/10 16:56:43;;;;;;;;;;;;;;;23.78;44.58;95383.69;10320825;28;1107;-64
2023/06/10 17:01:44;;;;;;;;;;;;;;;23.77;44.93;95372.31;10313589;28;1914;-64
2023/06/10 17:06:44;;;;;;;;;;;;;;;23.78;44.88;95379.16;10312791;28;1458;-64
2023/06/10 17:11:44;;;;;;;;;;;;;;;23.79;44.77;95378.09;10316676;28;1524;-64
2023/06/10 17:16:45;;;;;;;;;;;;;;;23.78;44.90;95373.88;10317372;28;2301;-64
2023/06/10 17:21:45;;;;;;;;;;;;;;;23.80;44.68;95384.19;10319505;28;1895;-64
2023/06/10 17:26:46;;;;;;;;;;;;;;;23.79;44.92;95391.34;10315378;28;1392;-64
2023/06/10 17:31:46;;;;;;;;;;;;;;;23.79;44.96;95390.53;10321121;28;1075;-64
2023/06/10 17:36:47;;;;;;;;;;;;;;;23.78;44.76;95387.09;10316939;28;1497;-64
2023/06/10 17:41:47;;;;;;;;;;;;;;;23.79;44.62;95393.19;10314707;28;5030;-64
2023/06/10 17:46:47;;;;;;;;;;;;;;;23.80;44.96;95410.66;10317695;28;1394;-64
2023/06/10 17:51:48;;;;;;;;;;;;;;;23.79;44.82;95412.50;10318315;28;1167;-64
2023/06/10 17:56:48;;;;;;;;;;;;;;;23.80;44.90;95408.00;10312163;28;1371;-64
2023/06/10 18:01:48;;;;;;;;;;;;;;;23.80;44.81;95408.75;10318311;28;1895;-64
2023/06/10 18:06:49;;;;;;;;;;;;;;;23.80;44.86;95408.75;10311088;28;1338;-64
2023/06/10 18:11:49;;;;;;;;;;;;;;;23.80;44.97;95408.75;10314382;28;2250;-64
2023/06/10 18:16:49;;;;;;;;;;;;;;;23.80;44.90;95414.06;10317828;28;1127;-64
2023/06/10 18:21:49;;;;;;;;;;;;;;;23.81;44.99;95420.13;10311038;28;1911;-64
2023/06/10 18:26:50;;;;;;;;;;;;;;;23.80;45.08;95415.94;10317556;28;1150;-64
2023/06/10 18:31:50;;;;;;;;;;;;;;;23.80;44.88;95423.88;10315637;28;1369;-64
2023/06/10 18:36:50;;;;;;;;;;;;;;;23.80;44.70;95418.59;10317050;28;1221;-64
2023/06/10 18:41:50;;;;;;;;;;;;;;;23.80;44.79;95427.28;10305672;28;5643;-64
2023/06/10 18:46:51;;;;;;;;;;;;;;;23.81;44.99;95436.00;10315383;28;1465;-64
2023/06/10 18:51:51;;;;;;;;;;;;;;;23.80;45.11;95435.22;10310788;28;1182;-64
2023/06/10 18:56:51;;;;;;;;;;;;;;;23.79;44.72;95438.97;10310969;28;1423;-65
2023/06/10 19:01:52;;;;;;;;;;;;;;;23.80;44.84;95445.81;10313318;28;1975;-65
2023/06/10 19:06:52;;;;;;;;;;;;;;;23.81;45.03;95457.19;10315613;28;1166;-65
2023/06/10 19:11:52;;;;;;;;;;;;;;;23.81;44.96;95451.91;10304339;28;2597;-65
2023/06/10 19:16:52;;;;;;;;;;;;;;;23.80;44.98;95471.53;10315105;28;1230;-65
2023/06/10 19:21:53;;;;;;;;;;;;;;;23.80;45.06;95477.56;10309862;28;1915;-65
2023/06/10 19:26:53;;;;;;;;;;;;;;;23.80;44.88;95487.41;10309164;28;1438;-64
2023/06/10 19:31:53;;;;;;;;;;;;;;;23.81;45.10;95491.59;10317163;28;1104;-65
2023/06/10 19:36:53;;;;;;;;;;;;;;;23.80;44.90;95482.09;10312653;28;1396;-65
2023/06/10 19:41:54;;;;;;;;;;;;;;;23.79;44.98;95489.25;10309692;28;5666;-65
2023/06/10 19:46:54;;;;;;;;;;;;;;;23.81;45.03;95496.88;10314863;28;1254;-65
2023/06/10 19:51:54;;;;;;;;;;;;;;;23.81;44.99;95497.69;10305878;28;1342;-65
2023/06/10 19:56:54;;;;;;;;;;;;;;;23.80;45.09;95504.03;10314054;28;1167;-65
2023/06/10 20:01:55;;;;;;;;;;;;;;;23.80;45.03;95513.88;10309165;28;1975;-65
2023/06/10 20:06:55;;;;;;;;;;;;;;;23.80;45.11;95519.16;10313394;28;2460;-65
2023/06/10 20:11:55;;;;;;;;;;;;;;;23.82;44.92;95517.00;10306102;28;1599;-65
2023/06/10 20:16:55;;;;;;;;;;;;;;;23.82;44.91;95520.41;10313744;28;1269;-65
2023/06/10 20:21:56;;;;;;;;;;;;;;;23.82;44.92;95517.75;10311237;28;1958;-65
2023/06/10 20:26:56;;;;;;;;;;;;;;;23.81;44.89;95518.84;10314016;28;1155;-65
2023/06/10 20:31:56;;;;;;;;;;;;;;;23.81;44.76;95518.84;10305868;28;1412;-65
2023/06/10 20:36:57;;;;;;;;;;;;;;;23.82;44.90;95522.28;10313474;28;1143;-65
2023/06/10 20:41:57;;;;;;;;;;;;;;;23.82;44.98;95522.28;10307611;28;5149;-65
2023/06/10 20:46:57;;;;;;;;;;;;;;;23.81;45.06;95526.78;10313285;28;1151;-64
2023/06/10 20:51:57;;;;;;;;;;;;;;;23.82;44.84;95530.22;10308402;28;1417;-65
2023/06/10 20:56:58;;;;;;;;;;;;;;;23.81;44.64;95529.44;10313143;28;1358;-65
2023/06/10 21:01:59;;;;;;;;;;;;;;;23.82;44.84;95527.59;10308501;28;2306;-64
2023/06/10 21:06:59;;;;;;;;;;;;;;;23.69;45.27;95523.91;10308792;28;2071;-65
2023/06/10 21:11:59;;;;;;;;;;;;;;;23.58;46.33;95537.63;10297835;28;2077;-64
2023/06/10 21:16:59;;;;;;;;;;;;;;;23.46;46.54;95535.50;10316956;28;1865;-64
2023/06/10 21:22:00;;;;;;;;;;;;;;;23.32;47.70;95540.03;10315034;28;1911;-64
2023/06/10 21:27:00;;;;;;;;;;;;;;;23.25;47.76;95548.31;10299119;28;1841;-62
2023/06/10 21:32:00;;;;;;;;;;;;;;;23.12;47.65;95545.69;10313492;28;1430;-62
2023/06/10 21:37:00;;;;;;;;;;;;;;;23.03;47.75;95555.38;10312480;28;1520;-62
2023/06/10 21:42:01;;;;;;;;;;;;;;;22.94;48.21;95543.91;10313932;28;5422;-64
2023/06/10 21:47:01;;;;;;;;;;;;;;;22.91;47.94;95547.16;10311626;28;1878;-61
2023/06/10 21:52:02;;;;;;;;;;;;;;;22.83;48.56;95539.91;10307684;28;1892;-62
2023/06/10 21:57:03;;;;;;;;;;;;;;;22.80;48.47;95549.19;10306652;28;2305;-61
2023/06/10 22:02:03;;;;;;;;;;;;;;;22.76;48.65;95547.44;10302387;28;2090;-61
2023/06/10 22:07:03;;;;;;;;;;;;;;;22.74;48.61;95549.56;10293857;28;2090;-63
2023/06/10 22:12:05;;;;;;;;;;;;;;;22.67;48.79;95552.59;10308424;28;2033;-65
2023/06/10 22:17:06;;;;;;;;;;;;;;;22.67;48.64;95554.47;10321991;28;1976;-63
2023/06/10 22:22:06;;;;;;;;;;;;;;;22.63;49.59;95547.13;10301659;28;2140;-64
2023/06/10 22:27:07;;;;;;;;;;;;;;;22.74;49.57;95544.28;10302928;28;2033;-63
2023/06/10 22:32:08;;;;;;;;;;;;;;;22.80;49.49;95537.84;10305156;28;1954;-64
2023/06/10 22:37:08;;;;;;;;;;;;;;;22.87;49.38;95528.47;10301557;28;1914;-64
2023/06/10 22:42:09;;;;;;;;;;;;;;;22.90;49.20;95527.06;10295856;28;5221;-63
2023/06/10 22:47:09;;;;;;;;;;;;;;;22.95;48.91;95524.34;10297869;28;2009;-63
2023/06/10 22:52:09;;;;;;;;;;;;;;;22.96;48.87;95536.47;10292983;28;1967;-64
2023/06/10 22:57:10;;;;;;;;;;;;;;;22.97;48.99;95543.34;10300304;28;2784;-63
2023/06/10 23:02:10;;;;;;;;;;;;;;;22.97;48.95;95540.69;10302236;28;1949;-63
2023/06/10 23:07:13;;;;;;;;;;;;;;;22.97;48.97;95541.50;10297826;28;1941;-63
2023/06/10 23:12:13;;;;;;;;;;;;;;;22.98;48.67;95534.34;10296049;28;1953;-63
2023/06/10 23:17:14;;;;;;;;;;;;;;;22.98;48.71;95543.03;10296734;28;2297;-63
2023/06/10 23:22:15;;;;;;;;;;;;;;;22.98;48.89;95545.69;10297342;28;1910;-63
2023/06/10 23:27:19;;;;;;;;;;;;;;;22.99;48.58;95541.19;10302709;28;2005;-63
2023/06/10 23:32:19;;;;;;;;;;;;;;;23.01;48.62;95545.09;10285640;28;1997;-63
2023/06/10 23:37:20;;;;;;;;;;;;;;;23.03;48.66;95542.16;10302102;28;1949;-64
2023/06/10 23:42:20;;;;;;;;;;;;;;;23.02;48.70;95545.91;10298295;28;4656;-64
2023/06/10 23:47:21;;;;;;;;;;;;;;;23.02;48.47;95551.94;10297155;28;1895;-64
2023/06/10 23:52:21;;;;;;;;;;;;;;;23.03;48.56;95547.44;10296259;28;2633;-63
2023/06/10 23:57:21;;;;;;;;;;;;;;;23.03;48.71;95536.88;10297771;28;1895;-64
